sensor_id;sensor_type;location;lat;lon;timestamp;P1;durP1;ratioP1;P2;durP2;ratioP2
23236;SDS011;11787;52.018;8.570;2023-08-20T00:01:28;10.48;;;9.13;;
23236;SDS011;11787;52.018;8.570;2023-08-20T00:03:54;11.00;;;9.30;;
23236;SDS011;11787;52.018;8.570;2023-08-20T00:06:20;12.02;;;9.25;;
23236;SDS011;11787;52.018;8.570;2023-08-20T00:08:46;12.65;;;8.75;;
23236;SDS011;11787;52.018;8.570;2023-08-20T00:11:13;13.02;;;8.88;;
23236;SDS011;11787;52.018;8.570;2023-08-20T00:13:39;9.60;;;8.05;;
23236;SDS011;11787;52.018;8.570;2023-08-20T00:16:04;13.68;;;8.90;;
23236;SDS011;11787;52.018;8.570;2023-08-20T00:18:30;11.10;;;8.55;;
23236;SDS011;11787;52.018;8.570;2023-08-20T00:20:56;13.98;;;9.63;;
23236;SDS011;11787;52.018;8.570;2023-08-20T00:23:23;10.82;;;7.90;;
23236;SDS011;11787;52.018;8.570;2023-08-20T00:25:49;13.38;;;8.45;;
23236;SDS011;11787;52.018;8.570;2023-08-20T00:28:15;9.60;;;7.63;;
23236;SDS011;11787;52.018;8.570;2023-08-20T00:30:40;10.07;;;7.63;;
23236;SDS011;11787;52.018;8.570;2023-08-20T00:33:06;12.65;;;8.38;;
23236;SDS011;11787;52.018;8.570;2023-08-20T00:35:31;12.00;;;7.63;;
23236;SDS011;11787;52.018;8.570;2023-08-20T00:37:57;12.98;;;8.05;;
23236;SDS011;11787;52.018;8.570;2023-08-20T00:40:23;12.27;;;7.40;;
23236;SDS011;11787;52.018;8.570;2023-08-20T00:42:49;11.45;;;7.80;;
23236;SDS011;11787;52.018;8.570;2023-08-20T00:45:15;9.68;;;7.05;;
23236;SDS011;11787;52.018;8.570;2023-08-20T00:47:44;10.55;;;6.68;;
23236;SDS011;11787;52.018;8.570;2023-08-20T00:50:09;9.15;;;6.53;;
23236;SDS011;11787;52.018;8.570;2023-08-20T00:52:36;10.98;;;7.03;;
23236;SDS011;11787;52.018;8.570;2023-08-20T00:55:11;9.55;;;5.82;;
23236;SDS011;11787;52.018;8.570;2023-08-20T00:57:41;8.55;;;6.10;;
23236;SDS011;11787;52.018;8.570;2023-08-20T01:00:07;9.50;;;5.78;;
23236;SDS011;11787;52.018;8.570;2023-08-20T01:02:36;10.05;;;6.57;;
23236;SDS011;11787;52.018;8.570;2023-08-20T01:05:03;10.80;;;6.25;;
23236;SDS011;11787;52.018;8.570;2023-08-20T01:10:39;9.73;;;5.75;;
23236;SDS011;11787;52.018;8.570;2023-08-20T01:13:24;8.25;;;5.90;;
23236;SDS011;11787;52.018;8.570;2023-08-20T01:15:50;9.23;;;5.90;;
23236;SDS011;11787;52.018;8.570;2023-08-20T01:18:15;10.80;;;6.22;;
23236;SDS011;11787;52.018;8.570;2023-08-20T01:20:45;9.80;;;6.63;;
23236;SDS011;11787;52.018;8.570;2023-08-20T01:23:24;8.07;;;5.93;;
23236;SDS011;11787;52.018;8.570;2023-08-20T01:28:46;7.80;;;6.03;;
23236;SDS011;11787;52.018;8.570;2023-08-20T01:31:12;9.98;;;6.78;;
23236;SDS011;11787;52.018;8.570;2023-08-20T01:33:39;9.13;;;6.32;;
23236;SDS011;11787;52.018;8.570;2023-08-20T01:36:06;7.90;;;5.95;;
23236;SDS011;11787;52.018;8.570;2023-08-20T01:38:36;8.70;;;6.15;;
23236;SDS011;11787;52.018;8.570;2023-08-20T01:41:02;9.75;;;6.32;;
23236;SDS011;11787;52.018;8.570;2023-08-20T01:43:29;7.85;;;6.20;;
23236;SDS011;11787;52.018;8.570;2023-08-20T01:45:54;10.10;;;5.88;;
23236;SDS011;11787;52.018;8.570;2023-08-20T01:48:20;9.73;;;6.00;;
23236;SDS011;11787;52.018;8.570;2023-08-20T01:50:45;8.85;;;5.93;;
23236;SDS011;11787;52.018;8.570;2023-08-20T01:53:11;7.57;;;6.28;;
23236;SDS011;11787;52.018;8.570;2023-08-20T01:55:37;8.90;;;6.07;;
23236;SDS011;11787;52.018;8.570;2023-08-20T01:58:03;10.73;;;6.40;;
23236;SDS011;11787;52.018;8.570;2023-08-20T02:00:28;8.95;;;6.28;;
23236;SDS011;11787;52.018;8.570;2023-08-20T02:02:55;11.07;;;7.35;;
23236;SDS011;11787;52.018;8.570;2023-08-20T02:05:21;6.95;;;5.90;;
23236;SDS011;11787;52.018;8.570;2023-08-20T02:07:47;8.50;;;6.47;;
23236;SDS011;11787;52.018;8.570;2023-08-20T02:10:12;10.40;;;6.60;;
23236;SDS011;11787;52.018;8.570;2023-08-20T02:12:39;12.15;;;6.68;;
23236;SDS011;11787;52.018;8.570;2023-08-20T02:15:05;8.98;;;5.63;;
23236;SDS011;11787;52.018;8.570;2023-08-20T02:17:32;8.30;;;5.57;;
23236;SDS011;11787;52.018;8.570;2023-08-20T02:19:57;8.48;;;5.80;;
23236;SDS011;11787;52.018;8.570;2023-08-20T02:22:23;9.32;;;6.43;;
23236;SDS011;11787;52.018;8.570;2023-08-20T02:24:48;9.93;;;6.28;;
23236;SDS011;11787;52.018;8.570;2023-08-20T02:27:14;12.73;;;6.63;;
23236;SDS011;11787;52.018;8.570;2023-08-20T02:29:40;8.00;;;6.50;;
23236;SDS011;11787;52.018;8.570;2023-08-20T02:32:05;12.48;;;7.88;;
23236;SDS011;11787;52.018;8.570;2023-08-20T02:34:31;9.15;;;6.45;;
23236;SDS011;11787;52.018;8.570;2023-08-20T02:36:56;11.43;;;6.70;;
23236;SDS011;11787;52.018;8.570;2023-08-20T02:39:22;8.77;;;6.55;;
23236;SDS011;11787;52.018;8.570;2023-08-20T02:41:49;8.23;;;6.05;;
23236;SDS011;11787;52.018;8.570;2023-08-20T02:44:14;10.88;;;6.40;;
23236;SDS011;11787;52.018;8.570;2023-08-20T02:46:40;8.35;;;6.75;;
23236;SDS011;11787;52.018;8.570;2023-08-20T02:49:06;10.40;;;6.70;;
23236;SDS011;11787;52.018;8.570;2023-08-20T02:51:31;7.97;;;6.78;;
23236;SDS011;11787;52.018;8.570;2023-08-20T02:53:57;8.45;;;6.65;;
23236;SDS011;11787;52.018;8.570;2023-08-20T02:56:22;12.25;;;7.63;;
23236;SDS011;11787;52.018;8.570;2023-08-20T02:58:48;9.35;;;6.95;;
23236;SDS011;11787;52.018;8.570;2023-08-20T03:01:17;10.70;;;6.63;;
23236;SDS011;11787;52.018;8.570;2023-08-20T03:03:47;9.38;;;6.78;;
23236;SDS011;11787;52.018;8.570;2023-08-20T03:06:12;10.35;;;6.70;;
23236;SDS011;11787;52.018;8.570;2023-08-20T03:08:38;8.90;;;7.00;;
23236;SDS011;11787;52.018;8.570;2023-08-20T03:11:04;9.23;;;6.45;;
23236;SDS011;11787;52.018;8.570;2023-08-20T03:13:29;10.32;;;7.18;;
23236;SDS011;11787;52.018;8.570;2023-08-20T03:15:55;9.60;;;7.20;;
23236;SDS011;11787;52.018;8.570;2023-08-20T03:18:22;9.75;;;7.32;;
23236;SDS011;11787;52.018;8.570;2023-08-20T03:20:47;9.93;;;6.47;;
23236;SDS011;11787;52.018;8.570;2023-08-20T03:23:13;9.80;;;6.43;;
23236;SDS011;11787;52.018;8.570;2023-08-20T03:25:38;10.07;;;6.40;;
23236;SDS011;11787;52.018;8.570;2023-08-20T03:28:04;12.88;;;6.47;;
23236;SDS011;11787;52.018;8.570;2023-08-20T03:30:30;12.30;;;6.55;;
23236;SDS011;11787;52.018;8.570;2023-08-20T03:32:56;7.78;;;5.47;;
23236;SDS011;11787;52.018;8.570;2023-08-20T03:35:22;8.18;;;6.38;;
23236;SDS011;11787;52.018;8.570;2023-08-20T03:37:48;10.27;;;6.90;;
23236;SDS011;11787;52.018;8.570;2023-08-20T03:40:13;6.20;;;5.22;;
23236;SDS011;11787;52.018;8.570;2023-08-20T03:42:40;8.02;;;6.18;;
23236;SDS011;11787;52.018;8.570;2023-08-20T03:45:05;7.50;;;5.70;;
23236;SDS011;11787;52.018;8.570;2023-08-20T03:47:31;6.05;;;5.32;;
23236;SDS011;11787;52.018;8.570;2023-08-20T03:49:57;8.20;;;5.10;;
23236;SDS011;11787;52.018;8.570;2023-08-20T03:52:23;7.05;;;5.25;;
23236;SDS011;11787;52.018;8.570;2023-08-20T03:54:49;9.57;;;5.70;;
23236;SDS011;11787;52.018;8.570;2023-08-20T03:57:15;9.70;;;6.03;;
23236;SDS011;11787;52.018;8.570;2023-08-20T03:59:41;10.52;;;5.97;;
23236;SDS011;11787;52.018;8.570;2023-08-20T04:02:06;7.00;;;5.90;;
23236;SDS011;11787;52.018;8.570;2023-08-20T04:04:32;8.07;;;5.65;;
23236;SDS011;11787;52.018;8.570;2023-08-20T04:06:58;6.95;;;5.50;;
23236;SDS011;11787;52.018;8.570;2023-08-20T04:09:23;9.43;;;6.22;;
23236;SDS011;11787;52.018;8.570;2023-08-20T04:11:49;9.77;;;6.03;;
23236;SDS011;11787;52.018;8.570;2023-08-20T04:14:14;10.90;;;5.85;;
23236;SDS011;11787;52.018;8.570;2023-08-20T04:16:40;11.35;;;6.18;;
23236;SDS011;11787;52.018;8.570;2023-08-20T04:19:06;8.50;;;6.03;;
23236;SDS011;11787;52.018;8.570;2023-08-20T04:21:31;7.63;;;5.57;;
23236;SDS011;11787;52.018;8.570;2023-08-20T04:23:57;8.65;;;5.93;;
23236;SDS011;11787;52.018;8.570;2023-08-20T04:26:23;7.82;;;5.60;;
23236;SDS011;11787;52.018;8.570;2023-08-20T04:28:48;8.25;;;5.85;;
23236;SDS011;11787;52.018;8.570;2023-08-20T04:31:14;7.95;;;5.15;;
23236;SDS011;11787;52.018;8.570;2023-08-20T04:33:39;10.25;;;5.75;;
23236;SDS011;11787;52.018;8.570;2023-08-20T04:36:05;7.28;;;5.40;;
23236;SDS011;11787;52.018;8.570;2023-08-20T04:38:31;7.22;;;5.72;;
23236;SDS011;11787;52.018;8.570;2023-08-20T04:40:56;7.45;;;4.93;;
23236;SDS011;11787;52.018;8.570;2023-08-20T04:43:22;8.70;;;5.43;;
23236;SDS011;11787;52.018;8.570;2023-08-20T04:45:47;6.03;;;5.15;;
23236;SDS011;11787;52.018;8.570;2023-08-20T04:48:14;7.50;;;5.20;;
23236;SDS011;11787;52.018;8.570;2023-08-20T04:50:40;5.68;;;4.78;;
23236;SDS011;11787;52.018;8.570;2023-08-20T04:53:05;9.18;;;5.05;;
23236;SDS011;11787;52.018;8.570;2023-08-20T04:55:31;6.97;;;4.80;;
23236;SDS011;11787;52.018;8.570;2023-08-20T04:57:57;7.30;;;4.80;;
23236;SDS011;11787;52.018;8.570;2023-08-20T05:00:22;8.90;;;5.20;;
23236;SDS011;11787;52.018;8.570;2023-08-20T05:02:48;7.80;;;5.15;;
23236;SDS011;11787;52.018;8.570;2023-08-20T05:05:13;6.60;;;5.03;;
23236;SDS011;11787;52.018;8.570;2023-08-20T05:07:39;8.63;;;5.40;;
23236;SDS011;11787;52.018;8.570;2023-08-20T05:10:06;7.45;;;4.97;;
23236;SDS011;11787;52.018;8.570;2023-08-20T05:12:32;8.30;;;5.25;;
23236;SDS011;11787;52.018;8.570;2023-08-20T05:14:57;7.43;;;4.70;;
23236;SDS011;11787;52.018;8.570;2023-08-20T05:17:23;7.85;;;5.13;;
23236;SDS011;11787;52.018;8.570;2023-08-20T05:19:49;9.45;;;4.95;;
23236;SDS011;11787;52.018;8.570;2023-08-20T05:22:14;8.75;;;4.75;;
23236;SDS011;11787;52.018;8.570;2023-08-20T05:24:40;8.77;;;5.03;;
23236;SDS011;11787;52.018;8.570;2023-08-20T05:29:32;5.95;;;4.15;;
23236;SDS011;11787;52.018;8.570;2023-08-20T05:31:58;8.18;;;3.75;;
23236;SDS011;11787;52.018;8.570;2023-08-20T05:34:24;5.38;;;3.85;;
23236;SDS011;11787;52.018;8.570;2023-08-20T05:36:49;6.35;;;4.70;;
23236;SDS011;11787;52.018;8.570;2023-08-20T05:39:15;5.82;;;3.95;;
23236;SDS011;11787;52.018;8.570;2023-08-20T05:41:41;8.10;;;4.20;;
23236;SDS011;11787;52.018;8.570;2023-08-20T05:44:06;9.02;;;4.47;;
23236;SDS011;11787;52.018;8.570;2023-08-20T05:46:32;6.18;;;4.05;;
23236;SDS011;11787;52.018;8.570;2023-08-20T05:48:57;6.22;;;4.00;;
23236;SDS011;11787;52.018;8.570;2023-08-20T05:51:23;7.13;;;4.18;;
23236;SDS011;11787;52.018;8.570;2023-08-20T05:53:48;6.40;;;3.70;;
23236;SDS011;11787;52.018;8.570;2023-08-20T05:56:14;6.88;;;3.63;;
23236;SDS011;11787;52.018;8.570;2023-08-20T05:58:40;6.10;;;3.47;;
23236;SDS011;11787;52.018;8.570;2023-08-20T06:01:05;7.72;;;3.28;;
23236;SDS011;11787;52.018;8.570;2023-08-20T06:03:31;5.72;;;3.20;;
23236;SDS011;11787;52.018;8.570;2023-08-20T06:05:57;7.78;;;3.53;;
23236;SDS011;11787;52.018;8.570;2023-08-20T06:08:23;5.93;;;3.03;;
23236;SDS011;11787;52.018;8.570;2023-08-20T06:10:51;9.77;;;4.70;;
23236;SDS011;11787;52.018;8.570;2023-08-20T06:13:17;9.85;;;6.05;;
23236;SDS011;11787;52.018;8.570;2023-08-20T06:15:43;5.90;;;3.42;;
23236;SDS011;11787;52.018;8.570;2023-08-20T06:18:08;8.13;;;3.10;;
23236;SDS011;11787;52.018;8.570;2023-08-20T06:20:34;9.20;;;3.42;;
23236;SDS011;11787;52.018;8.570;2023-08-20T06:22:59;6.75;;;3.30;;
23236;SDS011;11787;52.018;8.570;2023-08-20T06:25:25;8.98;;;3.40;;
23236;SDS011;11787;52.018;8.570;2023-08-20T06:27:51;5.88;;;3.00;;
23236;SDS011;11787;52.018;8.570;2023-08-20T06:30:16;4.82;;;2.97;;
23236;SDS011;11787;52.018;8.570;2023-08-20T06:32:43;5.70;;;3.10;;
23236;SDS011;11787;52.018;8.570;2023-08-20T06:35:09;4.38;;;3.00;;
23236;SDS011;11787;52.018;8.570;2023-08-20T06:37:35;5.75;;;3.20;;
23236;SDS011;11787;52.018;8.570;2023-08-20T06:40:00;5.85;;;3.95;;
23236;SDS011;11787;52.018;8.570;2023-08-20T06:42:26;8.63;;;4.03;;
23236;SDS011;11787;52.018;8.570;2023-08-20T06:44:52;5.70;;;3.67;;
23236;SDS011;11787;52.018;8.570;2023-08-20T06:47:17;8.70;;;4.30;;
23236;SDS011;11787;52.018;8.570;2023-08-20T06:49:43;6.75;;;4.22;;
23236;SDS011;11787;52.018;8.570;2023-08-20T06:52:08;6.32;;;3.60;;
23236;SDS011;11787;52.018;8.570;2023-08-20T06:54:34;8.77;;;4.50;;
23236;SDS011;11787;52.018;8.570;2023-08-20T06:57:00;4.63;;;3.67;;
23236;SDS011;11787;52.018;8.570;2023-08-20T06:59:26;7.90;;;4.45;;
23236;SDS011;11787;52.018;8.570;2023-08-20T07:01:52;7.90;;;4.78;;
23236;SDS011;11787;52.018;8.570;2023-08-20T07:04:17;5.45;;;4.60;;
23236;SDS011;11787;52.018;8.570;2023-08-20T07:06:43;5.53;;;4.28;;
23236;SDS011;11787;52.018;8.570;2023-08-20T07:09:09;8.68;;;5.47;;
23236;SDS011;11787;52.018;8.570;2023-08-20T07:11:34;9.65;;;5.20;;
23236;SDS011;11787;52.018;8.570;2023-08-20T07:14:00;6.75;;;4.72;;
23236;SDS011;11787;52.018;8.570;2023-08-20T07:16:25;10.13;;;4.88;;
23236;SDS011;11787;52.018;8.570;2023-08-20T07:18:51;9.95;;;5.15;;
23236;SDS011;11787;52.018;8.570;2023-08-20T07:21:18;7.43;;;5.30;;
23236;SDS011;11787;52.018;8.570;2023-08-20T07:23:43;5.93;;;5.13;;
23236;SDS011;11787;52.018;8.570;2023-08-20T07:26:09;6.75;;;5.35;;
23236;SDS011;11787;52.018;8.570;2023-08-20T07:28:37;7.15;;;6.03;;
23236;SDS011;11787;52.018;8.570;2023-08-20T07:31:21;7.97;;;5.13;;
23236;SDS011;11787;52.018;8.570;2023-08-20T07:33:48;6.28;;;5.68;;
23236;SDS011;11787;52.018;8.570;2023-08-20T07:36:14;7.30;;;5.70;;
23236;SDS011;11787;52.018;8.570;2023-08-20T07:38:42;7.60;;;5.90;;
23236;SDS011;11787;52.018;8.570;2023-08-20T07:41:09;9.27;;;5.63;;
23236;SDS011;11787;52.018;8.570;2023-08-20T07:43:36;7.65;;;5.75;;
23236;SDS011;11787;52.018;8.570;2023-08-20T07:46:04;7.53;;;6.68;;
23236;SDS011;11787;52.018;8.570;2023-08-20T07:48:30;7.63;;;6.47;;
23236;SDS011;11787;52.018;8.570;2023-08-20T07:50:55;8.98;;;6.00;;
23236;SDS011;11787;52.018;8.570;2023-08-20T07:53:21;8.23;;;6.72;;
23236;SDS011;11787;52.018;8.570;2023-08-20T07:55:47;7.55;;;6.47;;
23236;SDS011;11787;52.018;8.570;2023-08-20T07:58:12;8.68;;;6.78;;
23236;SDS011;11787;52.018;8.570;2023-08-20T08:00:38;7.93;;;7.10;;
23236;SDS011;11787;52.018;8.570;2023-08-20T08:03:03;7.85;;;7.13;;
23236;SDS011;11787;52.018;8.570;2023-08-20T08:05:29;8.40;;;7.60;;
23236;SDS011;11787;52.018;8.570;2023-08-20T08:07:55;9.65;;;7.80;;
23236;SDS011;11787;52.018;8.570;2023-08-20T08:10:20;8.05;;;6.97;;
23236;SDS011;11787;52.018;8.570;2023-08-20T08:12:46;10.00;;;8.68;;
23236;SDS011;11787;52.018;8.570;2023-08-20T08:15:12;11.57;;;9.27;;
23236;SDS011;11787;52.018;8.570;2023-08-20T08:17:38;10.98;;;9.88;;
23236;SDS011;11787;52.018;8.570;2023-08-20T08:20:04;8.63;;;7.68;;
23236;SDS011;11787;52.018;8.570;2023-08-20T08:22:30;10.35;;;9.27;;
23236;SDS011;11787;52.018;8.570;2023-08-20T08:24:56;10.25;;;9.00;;
23236;SDS011;11787;52.018;8.570;2023-08-20T08:27:21;11.18;;;9.85;;
23236;SDS011;11787;52.018;8.570;2023-08-20T08:29:47;10.80;;;9.70;;
23236;SDS011;11787;52.018;8.570;2023-08-20T08:32:13;13.57;;;11.07;;
23236;SDS011;11787;52.018;8.570;2023-08-20T08:34:38;13.18;;;11.23;;
23236;SDS011;11787;52.018;8.570;2023-08-20T08:37:04;11.82;;;10.63;;
23236;SDS011;11787;52.018;8.570;2023-08-20T08:39:30;11.30;;;10.13;;
23236;SDS011;11787;52.018;8.570;2023-08-20T08:42:02;11.90;;;10.70;;
23236;SDS011;11787;52.018;8.570;2023-08-20T08:44:30;10.70;;;9.73;;
23236;SDS011;11787;52.018;8.570;2023-08-20T08:46:57;11.25;;;10.02;;
23236;SDS011;11787;52.018;8.570;2023-08-20T08:49:23;11.27;;;9.55;;
23236;SDS011;11787;52.018;8.570;2023-08-20T08:51:48;10.50;;;9.45;;
23236;SDS011;11787;52.018;8.570;2023-08-20T08:54:16;9.75;;;8.75;;
23236;SDS011;11787;52.018;8.570;2023-08-20T08:56:42;9.80;;;8.80;;
23236;SDS011;11787;52.018;8.570;2023-08-20T08:59:07;9.25;;;7.40;;
23236;SDS011;11787;52.018;8.570;2023-08-20T09:01:37;8.40;;;7.60;;
23236;SDS011;11787;52.018;8.570;2023-08-20T09:04:04;9.05;;;7.80;;
23236;SDS011;11787;52.018;8.570;2023-08-20T09:06:43;9.00;;;8.10;;
23236;SDS011;11787;52.018;8.570;2023-08-20T09:09:16;9.15;;;7.50;;
23236;SDS011;11787;52.018;8.570;2023-08-20T09:11:43;7.00;;;6.32;;
23236;SDS011;11787;52.018;8.570;2023-08-20T09:14:20;10.50;;;6.30;;
23236;SDS011;11787;52.018;8.570;2023-08-20T09:16:50;6.55;;;5.95;;
23236;SDS011;11787;52.018;8.570;2023-08-20T09:19:20;8.15;;;6.45;;
23236;SDS011;11787;52.018;8.570;2023-08-20T09:21:46;7.03;;;6.07;;
23236;SDS011;11787;52.018;8.570;2023-08-20T09:29:10;6.68;;;5.47;;
23236;SDS011;11787;52.018;8.570;2023-08-20T09:31:36;6.55;;;5.25;;
23236;SDS011;11787;52.018;8.570;2023-08-20T09:34:03;6.10;;;5.30;;
23236;SDS011;11787;52.018;8.570;2023-08-20T09:36:30;5.28;;;4.78;;
23236;SDS011;11787;52.018;8.570;2023-08-20T09:39:03;5.20;;;4.70;;
23236;SDS011;11787;52.018;8.570;2023-08-20T09:41:29;4.72;;;4.15;;
23236;SDS011;11787;52.018;8.570;2023-08-20T09:43:57;5.50;;;4.78;;
23236;SDS011;11787;52.018;8.570;2023-08-20T09:46:24;6.15;;;4.70;;
23236;SDS011;11787;52.018;8.570;2023-08-20T09:48:52;4.93;;;4.53;;
23236;SDS011;11787;52.018;8.570;2023-08-20T09:51:24;5.78;;;4.38;;
23236;SDS011;11787;52.018;8.570;2023-08-20T09:54:39;4.97;;;4.47;;
23236;SDS011;11787;52.018;8.570;2023-08-20T09:56:46;5.13;;;4.30;;
23236;SDS011;11787;52.018;8.570;2023-08-20T09:59:19;4.70;;;3.77;;
23236;SDS011;11787;52.018;8.570;2023-08-20T10:01:45;7.25;;;3.88;;
23236;SDS011;11787;52.018;8.570;2023-08-20T10:04:12;4.63;;;3.50;;
23236;SDS011;11787;52.018;8.570;2023-08-20T10:06:39;3.92;;;3.55;;
23236;SDS011;11787;52.018;8.570;2023-08-20T10:09:06;4.90;;;3.60;;
23236;SDS011;11787;52.018;8.570;2023-08-20T10:11:32;4.72;;;3.70;;
23236;SDS011;11787;52.018;8.570;2023-08-20T10:13:58;4.10;;;3.55;;
23236;SDS011;11787;52.018;8.570;2023-08-20T10:16:23;4.75;;;3.40;;
23236;SDS011;11787;52.018;8.570;2023-08-20T10:18:52;3.83;;;3.35;;
23236;SDS011;11787;52.018;8.570;2023-08-20T10:21:23;4.13;;;3.72;;
23236;SDS011;11787;52.018;8.570;2023-08-20T10:23:49;4.00;;;3.40;;
23236;SDS011;11787;52.018;8.570;2023-08-20T10:26:15;3.60;;;3.30;;
23236;SDS011;11787;52.018;8.570;2023-08-20T10:28:41;6.05;;;3.78;;
23236;SDS011;11787;52.018;8.570;2023-08-20T10:31:11;6.72;;;3.90;;
23236;SDS011;11787;52.018;8.570;2023-08-20T10:36:21;4.47;;;3.47;;
23236;SDS011;11787;52.018;8.570;2023-08-20T10:38:52;4.53;;;4.05;;
23236;SDS011;11787;52.018;8.570;2023-08-20T10:41:26;6.30;;;3.90;;
23236;SDS011;11787;52.018;8.570;2023-08-20T10:43:54;5.13;;;4.18;;
23236;SDS011;11787;52.018;8.570;2023-08-20T10:46:23;4.07;;;3.67;;
23236;SDS011;11787;52.018;8.570;2023-08-20T10:48:53;4.18;;;3.47;;
23236;SDS011;11787;52.018;8.570;2023-08-20T10:56:43;4.47;;;3.50;;
23236;SDS011;11787;52.018;8.570;2023-08-20T10:59:26;5.90;;;3.45;;
23236;SDS011;11787;52.018;8.570;2023-08-20T11:01:54;3.92;;;3.53;;
23236;SDS011;11787;52.018;8.570;2023-08-20T11:04:23;3.67;;;3.38;;
23236;SDS011;11787;52.018;8.570;2023-08-20T11:06:52;5.07;;;3.65;;
23236;SDS011;11787;52.018;8.570;2023-08-20T11:09:21;4.10;;;3.50;;
23236;SDS011;11787;52.018;8.570;2023-08-20T11:11:47;5.57;;;3.95;;
23236;SDS011;11787;52.018;8.570;2023-08-20T11:14:13;4.10;;;3.65;;
23236;SDS011;11787;52.018;8.570;2023-08-20T11:16:43;4.53;;;3.85;;
23236;SDS011;11787;52.018;8.570;2023-08-20T11:19:09;3.85;;;3.53;;
23236;SDS011;11787;52.018;8.570;2023-08-20T11:21:35;3.90;;;3.50;;
23236;SDS011;11787;52.018;8.570;2023-08-20T11:24:02;4.18;;;3.38;;
23236;SDS011;11787;52.018;8.570;2023-08-20T11:26:29;3.92;;;3.55;;
23236;SDS011;11787;52.018;8.570;2023-08-20T11:28:55;3.90;;;3.60;;
23236;SDS011;11787;52.018;8.570;2023-08-20T11:31:21;4.22;;;3.78;;
23236;SDS011;11787;52.018;8.570;2023-08-20T11:33:47;4.20;;;3.78;;
23236;SDS011;11787;52.018;8.570;2023-08-20T11:36:18;5.82;;;3.90;;
23236;SDS011;11787;52.018;8.570;2023-08-20T11:38:51;4.22;;;3.83;;
23236;SDS011;11787;52.018;8.570;2023-08-20T11:41:23;6.35;;;4.05;;
23236;SDS011;11787;52.018;8.570;2023-08-20T11:43:50;4.30;;;3.90;;
23236;SDS011;11787;52.018;8.570;2023-08-20T11:46:18;4.28;;;3.88;;
23236;SDS011;11787;52.018;8.570;2023-08-20T11:51:34;5.25;;;4.50;;
23236;SDS011;11787;52.018;8.570;2023-08-20T11:54:02;5.50;;;4.90;;
23236;SDS011;11787;52.018;8.570;2023-08-20T11:56:29;5.68;;;4.43;;
23236;SDS011;11787;52.018;8.570;2023-08-20T11:58:58;4.88;;;4.38;;
23236;SDS011;11787;52.018;8.570;2023-08-20T12:01:25;5.72;;;4.55;;
23236;SDS011;11787;52.018;8.570;2023-08-20T12:03:50;5.80;;;5.20;;
23236;SDS011;11787;52.018;8.570;2023-08-20T12:06:19;5.20;;;4.45;;
23236;SDS011;11787;52.018;8.570;2023-08-20T12:08:47;5.45;;;4.25;;
23236;SDS011;11787;52.018;8.570;2023-08-20T12:11:13;5.60;;;5.10;;
23236;SDS011;11787;52.018;8.570;2023-08-20T12:13:38;5.35;;;4.85;;
23236;SDS011;11787;52.018;8.570;2023-08-20T12:16:04;5.70;;;5.15;;
23236;SDS011;11787;52.018;8.570;2023-08-20T12:18:30;6.07;;;5.20;;
23236;SDS011;11787;52.018;8.570;2023-08-20T12:20:56;4.60;;;4.10;;
23236;SDS011;11787;52.018;8.570;2023-08-20T12:23:21;4.78;;;4.25;;
23236;SDS011;11787;52.018;8.570;2023-08-20T12:25:51;4.70;;;4.30;;
23236;SDS011;11787;52.018;8.570;2023-08-20T12:28:17;5.22;;;4.72;;
23236;SDS011;11787;52.018;8.570;2023-08-20T12:30:43;5.57;;;5.05;;
23236;SDS011;11787;52.018;8.570;2023-08-20T12:33:09;5.53;;;4.40;;
23236;SDS011;11787;52.018;8.570;2023-08-20T12:35:36;6.00;;;4.32;;
23236;SDS011;11787;52.018;8.570;2023-08-20T12:38:01;4.90;;;4.50;;
23236;SDS011;11787;52.018;8.570;2023-08-20T12:40:28;4.65;;;4.25;;
23236;SDS011;11787;52.018;8.570;2023-08-20T12:42:53;4.80;;;4.38;;
23236;SDS011;11787;52.018;8.570;2023-08-20T12:45:19;4.82;;;4.43;;
23236;SDS011;11787;52.018;8.570;2023-08-20T12:47:45;5.57;;;5.03;;
23236;SDS011;11787;52.018;8.570;2023-08-20T12:50:11;6.38;;;5.35;;
23236;SDS011;11787;52.018;8.570;2023-08-20T12:52:38;5.93;;;5.10;;
23236;SDS011;11787;52.018;8.570;2023-08-20T12:55:04;5.88;;;4.82;;
23236;SDS011;11787;52.018;8.570;2023-08-20T12:57:30;5.85;;;4.80;;
23236;SDS011;11787;52.018;8.570;2023-08-20T15:08:39;5.78;;;5.28;;
23236;SDS011;11787;52.018;8.570;2023-08-20T15:11:05;5.60;;;5.10;;
23236;SDS011;11787;52.018;8.570;2023-08-20T15:13:31;5.88;;;5.32;;
23236;SDS011;11787;52.018;8.570;2023-08-20T15:15:57;6.43;;;5.13;;
23236;SDS011;11787;52.018;8.570;2023-08-20T15:18:23;5.55;;;5.00;;
23236;SDS011;11787;52.018;8.570;2023-08-20T15:20:55;4.75;;;4.35;;
23236;SDS011;11787;52.018;8.570;2023-08-20T15:23:23;5.78;;;4.78;;
23236;SDS011;11787;52.018;8.570;2023-08-20T15:25:53;6.15;;;5.55;;
23236;SDS011;11787;52.018;8.570;2023-08-20T15:28:21;5.30;;;4.80;;
23236;SDS011;11787;52.018;8.570;2023-08-20T15:30:51;6.90;;;4.53;;
23236;SDS011;11787;52.018;8.570;2023-08-20T19:15:02;7.78;;;2.83;;
23236;SDS011;11787;52.018;8.570;2023-08-20T19:17:28;6.15;;;2.40;;
23236;SDS011;11787;52.018;8.570;2023-08-20T19:19:54;4.57;;;2.88;;
23236;SDS011;11787;52.018;8.570;2023-08-20T19:22:19;4.53;;;2.60;;
23236;SDS011;11787;52.018;8.570;2023-08-20T19:24:45;5.47;;;2.65;;
23236;SDS011;11787;52.018;8.570;2023-08-20T19:27:10;5.95;;;2.60;;
23236;SDS011;11787;52.018;8.570;2023-08-20T19:29:36;4.78;;;2.15;;
23236;SDS011;11787;52.018;8.570;2023-08-20T19:32:02;4.85;;;2.28;;
23236;SDS011;11787;52.018;8.570;2023-08-20T19:34:30;5.18;;;2.50;;
23236;SDS011;11787;52.018;8.570;2023-08-20T19:36:55;7.15;;;2.42;;
23236;SDS011;11787;52.018;8.570;2023-08-20T19:39:21;8.38;;;3.22;;
23236;SDS011;11787;52.018;8.570;2023-08-20T19:41:47;7.93;;;2.90;;
23236;SDS011;11787;52.018;8.570;2023-08-20T19:44:13;4.97;;;2.53;;
23236;SDS011;11787;52.018;8.570;2023-08-20T19:46:38;5.60;;;2.63;;
23236;SDS011;11787;52.018;8.570;2023-08-20T19:49:04;4.85;;;2.70;;
23236;SDS011;11787;52.018;8.570;2023-08-20T19:51:30;5.55;;;2.60;;
23236;SDS011;11787;52.018;8.570;2023-08-20T19:53:56;7.47;;;2.80;;
23236;SDS011;11787;52.018;8.570;2023-08-20T19:56:21;5.65;;;2.55;;
23236;SDS011;11787;52.018;8.570;2023-08-20T19:58:47;7.07;;;2.28;;
23236;SDS011;11787;52.018;8.570;2023-08-20T20:01:12;5.32;;;2.30;;
23236;SDS011;11787;52.018;8.570;2023-08-20T20:03:38;5.57;;;1.90;;
23236;SDS011;11787;52.018;8.570;2023-08-20T20:06:04;5.20;;;2.22;;
23236;SDS011;11787;52.018;8.570;2023-08-20T20:08:29;5.03;;;2.28;;
23236;SDS011;11787;52.018;8.570;2023-08-20T20:10:55;5.10;;;1.90;;
23236;SDS011;11787;52.018;8.570;2023-08-20T20:13:21;6.07;;;1.98;;
23236;SDS011;11787;52.018;8.570;2023-08-20T20:15:47;6.82;;;1.77;;
23236;SDS011;11787;52.018;8.570;2023-08-20T20:18:12;3.85;;;1.90;;
23236;SDS011;11787;52.018;8.570;2023-08-20T20:20:38;5.53;;;2.03;;
23236;SDS011;11787;52.018;8.570;2023-08-20T20:23:03;6.78;;;1.80;;
23236;SDS011;11787;52.018;8.570;2023-08-20T20:25:29;4.05;;;1.58;;
23236;SDS011;11787;52.018;8.570;2023-08-20T20:27:55;6.50;;;1.77;;
23236;SDS011;11787;52.018;8.570;2023-08-20T20:30:20;4.28;;;1.25;;
23236;SDS011;11787;52.018;8.570;2023-08-20T20:32:46;3.97;;;1.45;;
23236;SDS011;11787;52.018;8.570;2023-08-20T20:35:11;5.43;;;1.90;;
23236;SDS011;11787;52.018;8.570;2023-08-20T20:37:37;4.72;;;1.95;;
23236;SDS011;11787;52.018;8.570;2023-08-20T20:40:03;6.43;;;2.35;;
23236;SDS011;11787;52.018;8.570;2023-08-20T20:42:35;4.88;;;1.80;;
23236;SDS011;11787;52.018;8.570;2023-08-20T20:45:02;4.10;;;1.90;;
23236;SDS011;11787;52.018;8.570;2023-08-20T20:47:28;5.03;;;1.42;;
23236;SDS011;11787;52.018;8.570;2023-08-20T20:49:53;3.00;;;1.40;;
23236;SDS011;11787;52.018;8.570;2023-08-20T20:52:19;3.38;;;1.38;;
23236;SDS011;11787;52.018;8.570;2023-08-20T20:54:44;3.60;;;1.40;;
23236;SDS011;11787;52.018;8.570;2023-08-20T20:57:10;3.88;;;1.63;;